<?xml version="1.0" encoding="UTF-8" standalone="no" ?><gpx xmlns="http://www.topografix.com/GPX/1/1" xmlns:gpxx="http://www.garmin.com/xmlschemas/GpxExtensions/v3" xmlns:wptx1="http://www.garmin.com/xmlschemas/WaypointExtension/v1" xmlns:gpxtpx="http://www.garmin.com/xmlschemas/TrackPointExtension/v1" creator="GuideVTT.com" version="1.1" xmlns:xsi="http://www.w3.org/2001/XMLSchema-instance" xsi:schemaLocation="http://www.topografix.com/GPX/1/1 http://www.topografix.com/GPX/1/1/gpx.xsd http://www.garmin.com/xmlschemas/GpxExtensions/v3 http://www8.garmin.com/xmlschemas/GpxExtensionsv3.xsd http://www.garmin.com/xmlschemas/WaypointExtension/v1 http://www8.garmin.com/xmlschemas/WaypointExtensionv1.xsd http://www.garmin.com/xmlschemas/TrackPointExtension/v1 http://www.garmin.com/xmlschemas/TrackPointExtensionv1.xsd">
<metadata><link href="http://www.garmin.com"><text>Garmin International</text></link><time>2013-06-22T15:13:50Z</time></metadata>
<trk><name>piste_2014-06-23_202340.gpx</name><extensions><gpxx:TrackExtension><gpxx:DisplayColor>Cyan</gpxx:DisplayColor></gpxx:TrackExtension></extensions><trkseg>
<trkpt lat="46.2064739596" lon="7.4399139639"><ele></ele><time>2014-7-3T22:19:6Z</time></trkpt>
<trkpt lat="46.4684210904" lon="6.8299052864"><ele></ele><time>2014-7-3T22:19:9Z</time></trkpt>
<trkpt lat="46.4685403649" lon="6.8295099121"><ele></ele><time>2014-7-3T22:19:12Z</time></trkpt>
<trkpt lat="46.4685890637" lon="6.8292782363"><ele></ele><time>2014-7-3T22:19:15Z</time></trkpt>
<trkpt lat="46.4686504193" lon="6.8288888130"><ele></ele><time>2014-7-3T22:19:18Z</time></trkpt>
<trkpt lat="46.4686543588" lon="6.8288306426"><ele></ele><time>2014-7-3T22:19:21Z</time></trkpt>
<trkpt lat="46.4686821867" lon="6.8285375275"><ele></ele><time>2014-7-3T22:19:24Z</time></trkpt>
<trkpt lat="46.4687100146" lon="6.8277690746"><ele></ele><time>2014-7-3T22:19:27Z</time></trkpt>
<trkpt lat="46.4686460607" lon="6.8267179001"><ele></ele><time>2014-7-3T22:19:30Z</time></trkpt>
<trkpt lat="46.4685909078" lon="6.8258004170"><ele></ele><time>2014-7-3T22:19:33Z</time></trkpt>
<trkpt lat="46.4684870560" lon="6.8248813413"><ele></ele><time>2014-7-3T22:19:36Z</time></trkpt>
<trkpt lat="46.4684606530" lon="6.8239793647"><ele></ele><time>2014-7-3T22:19:39Z</time></trkpt>
<trkpt lat="46.4687071647" lon="6.8232601974"><ele></ele><time>2014-7-3T22:19:42Z</time></trkpt>
<trkpt lat="46.4692166168" lon="6.8227970973"><ele></ele><time>2014-7-3T22:19:45Z</time></trkpt>
<trkpt lat="46.4696280845" lon="6.8224920798"><ele></ele><time>2014-7-3T22:19:48Z</time></trkpt>
<trkpt lat="46.4700875804" lon="6.8216974754"><ele></ele><time>2014-7-3T22:19:51Z</time></trkpt>
<trkpt lat="46.4703866467" lon="6.8201641738"><ele></ele><time>2014-7-3T22:19:54Z</time></trkpt>
<trkpt lat="46.4704916719" lon="6.8179067597"><ele></ele><time>2014-7-3T22:19:57Z</time></trkpt>
<trkpt lat="46.4705650136" lon="6.8162567820"><ele></ele><time>2014-7-3T22:20:0Z</time></trkpt>
<trkpt lat="46.4706987049" lon="6.8145129271"><ele></ele><time>2014-7-3T22:20:3Z</time></trkpt>
<trkpt lat="46.4708201587" lon="6.8138340767"><ele></ele><time>2014-7-3T22:20:6Z</time></trkpt>
<trkpt lat="46.4710604679" lon="6.8131971359"><ele></ele><time>2014-7-3T22:20:9Z</time></trkpt>
<trkpt lat="46.4712916408" lon="6.8125046231"><ele></ele><time>2014-7-3T22:20:12Z</time></trkpt>
<trkpt lat="46.4713755436" lon="6.8125523161"><ele></ele><time>2014-7-3T22:20:15Z</time></trkpt>
<trkpt lat="46.4713434409" lon="6.8130614329"><ele></ele><time>2014-7-3T22:20:18Z</time></trkpt>
<trkpt lat="46.4713709336" lon="6.8136207573"><ele></ele><time>2014-7-3T22:20:21Z</time></trkpt>
<trkpt lat="46.4714491367" lon="6.8141240906"><ele></ele><time>2014-7-3T22:20:24Z</time></trkpt>
<trkpt lat="46.4715768769" lon="6.8146975804"><ele></ele><time>2014-7-3T22:20:27Z</time></trkpt>
<trkpt lat="46.4717312716" lon="6.8151686434"><ele></ele><time>2014-7-3T22:20:30Z</time></trkpt>
<trkpt lat="46.4718787093" lon="6.8156472500"><ele></ele><time>2014-7-3T22:20:33Z</time></trkpt>
<trkpt lat="46.4718865044" lon="6.8156617507"><ele></ele><time>2014-7-3T22:20:36Z</time></trkpt>
<trkpt lat="46.4719544817" lon="6.8156319950"><ele></ele><time>2014-7-3T22:20:39Z</time></trkpt>
<trkpt lat="46.4720464312" lon="6.8155526184"><ele></ele><time>2014-7-3T22:20:42Z</time></trkpt>
<trkpt lat="46.4722237084" lon="6.8153522909"><ele></ele><time>2014-7-3T22:20:45Z</time></trkpt>
<trkpt lat="46.4722139016" lon="6.8152325973"><ele></ele><time>2014-7-3T22:20:48Z</time></trkpt>
<trkpt lat="46.4721164200" lon="6.8148697447"><ele></ele><time>2014-7-3T22:20:51Z</time></trkpt>
<trkpt lat="46.4720460121" lon="6.8144287728"><ele></ele><time>2014-7-3T22:20:54Z</time></trkpt>
<trkpt lat="46.4719844051" lon="6.8140127789"><ele></ele><time>2014-7-3T22:20:57Z</time></trkpt>
<trkpt lat="46.4718761109" lon="6.8133192603"><ele></ele><time>2014-7-3T22:21:0Z</time></trkpt>
<trkpt lat="46.4718103129" lon="6.8124273419"><ele></ele><time>2014-7-3T22:21:3Z</time></trkpt>
<trkpt lat="46.4718519710" lon="6.8114053365"><ele></ele><time>2014-7-3T22:21:6Z</time></trkpt>
<trkpt lat="46.4719221275" lon="6.8106960598"><ele></ele><time>2014-7-3T22:21:9Z</time></trkpt>
<trkpt lat="46.4720296673" lon="6.8101857696"><ele></ele><time>2014-7-3T22:21:12Z</time></trkpt>
<trkpt lat="46.4721716568" lon="6.8097188976"><ele></ele><time>2014-7-3T22:21:15Z</time></trkpt>
<trkpt lat="46.4722902607" lon="6.8093330786"><ele></ele><time>2014-7-3T22:21:18Z</time></trkpt>
<trkpt lat="46.4724740759" lon="6.8089761771"><ele></ele><time>2014-7-3T22:21:21Z</time></trkpt>
<trkpt lat="46.4725661092" lon="6.8085870892"><ele></ele><time>2014-7-3T22:21:24Z</time></trkpt>
<trkpt lat="46.4727226831" lon="6.8078452069"><ele></ele><time>2014-7-3T22:21:27Z</time></trkpt>
<trkpt lat="46.4728267025" lon="6.8069883250"><ele></ele><time>2014-7-3T22:21:30Z</time></trkpt>
<trkpt lat="46.4729624055" lon="6.8065787014"><ele></ele><time>2014-7-3T22:21:33Z</time></trkpt>
<trkpt lat="46.4730536845" lon="6.8060163595"><ele></ele><time>2014-7-3T22:21:36Z</time></trkpt>
<trkpt lat="46.4732054807" lon="6.8052477390"><ele></ele><time>2014-7-3T22:21:39Z</time></trkpt>
<trkpt lat="46.4733497333" lon="6.8048059288"><ele></ele><time>2014-7-3T22:21:42Z</time></trkpt>
<trkpt lat="46.4734251704" lon="6.8043074571"><ele></ele><time>2014-7-3T22:21:45Z</time></trkpt>
<trkpt lat="46.4736961573" lon="6.8035126850"><ele></ele><time>2014-7-3T22:21:48Z</time></trkpt>
<trkpt lat="46.4738000929" lon="6.8028055038"><ele></ele><time>2014-7-3T22:21:51Z</time></trkpt>
<trkpt lat="46.4737985004" lon="6.8027395383"><ele></ele><time>2014-7-3T22:21:54Z</time></trkpt>
<trkpt lat="46.4738697466" lon="6.8027873989"><ele></ele><time>2014-7-3T22:21:57Z</time></trkpt>
<trkpt lat="46.4738740213" lon="6.8032377586"><ele></ele><time>2014-7-3T22:22:0Z</time></trkpt>
<trkpt lat="46.4737886935" lon="6.8036980089"><ele></ele><time>2014-7-3T22:22:3Z</time></trkpt>
<trkpt lat="46.4737366419" lon="6.8039430957"><ele></ele><time>2014-7-3T22:22:6Z</time></trkpt>
<trkpt lat="46.4737597760" lon="6.8042086344"><ele></ele><time>2014-7-3T22:22:9Z</time></trkpt>
<trkpt lat="46.4737031143" lon="6.8044690602"><ele></ele><time>2014-7-3T22:22:12Z</time></trkpt>
<trkpt lat="46.4736952353" lon="6.8044853210"><ele></ele><time>2014-7-3T22:22:15Z</time></trkpt>
<trkpt lat="46.4736403339" lon="6.8047221098"><ele></ele><time>2014-7-3T22:22:18Z</time></trkpt>
<trkpt lat="46.4735373203" lon="6.8050958589"><ele></ele><time>2014-7-3T22:22:21Z</time></trkpt>
<trkpt lat="46.4735114202" lon="6.8054186460"><ele></ele><time>2014-7-3T22:22:24Z</time></trkpt>
<trkpt lat="46.4736467041" lon="6.8056720309"><ele></ele><time>2014-7-3T22:22:27Z</time></trkpt>
<trkpt lat="46.4738751948" lon="6.8058291916"><ele></ele><time>2014-7-3T22:22:30Z</time></trkpt>
<trkpt lat="46.4738958981" lon="6.8058532476"><ele></ele><time>2014-7-3T22:22:33Z</time></trkpt>
<trkpt lat="46.4738973230" lon="6.8059042934"><ele></ele><time>2014-7-3T22:22:36Z</time></trkpt>
<trkpt lat="46.4738905337" lon="6.8058975041"><ele></ele><time>2014-7-3T22:22:39Z</time></trkpt>
<trkpt lat="46.4739030227" lon="6.8059176207"><ele></ele><time>2014-7-3T22:22:42Z</time></trkpt>
<trkpt lat="46.4739072975" lon="6.8059345521"><ele></ele><time>2014-7-3T22:22:45Z</time></trkpt>
<trkpt lat="46.4739176072" lon="6.8063011765"><ele></ele><time>2014-7-3T22:22:48Z</time></trkpt>
<trkpt lat="46.4738552459" lon="6.8066707347"><ele></ele><time>2014-7-3T22:22:51Z</time></trkpt>
<trkpt lat="46.4737694990" lon="6.8070605770"><ele></ele><time>2014-7-3T22:22:54Z</time></trkpt>
<trkpt lat="46.4738841634" lon="6.8073656783"><ele></ele><time>2014-7-3T22:22:57Z</time></trkpt>
<trkpt lat="46.4739133324" lon="6.8077587895"><ele></ele><time>2014-7-3T22:23:0Z</time></trkpt>
<trkpt lat="46.4739339519" lon="6.8079949077"><ele></ele><time>2014-7-3T22:23:3Z</time></trkpt>
<trkpt lat="46.4741249755" lon="6.8082483765"><ele></ele><time>2014-7-3T22:23:6Z</time></trkpt>
<trkpt lat="46.4742531348" lon="6.8084477820"><ele></ele><time>2014-7-3T22:23:9Z</time></trkpt>
<trkpt lat="46.4743024204" lon="6.8088437431"><ele></ele><time>2014-7-3T22:23:12Z</time></trkpt>
<trkpt lat="46.4743389655" lon="6.8093518540"><ele></ele><time>2014-7-3T22:23:15Z</time></trkpt>
<trkpt lat="46.4744100440" lon="6.8101311196"><ele></ele><time>2014-7-3T22:23:18Z</time></trkpt>
<trkpt lat="46.4744576532" lon="6.8107636180"><ele></ele><time>2014-7-3T22:23:21Z</time></trkpt>
<trkpt lat="46.4744684659" lon="6.8109957967"><ele></ele><time>2014-7-3T22:23:24Z</time></trkpt>
<trkpt lat="46.4744711481" lon="6.8110004067"><ele></ele><time>2014-7-3T22:23:27Z</time></trkpt>
<trkpt lat="46.4745221939" lon="6.8110188469"><ele></ele><time>2014-7-3T22:23:30Z</time></trkpt>
<trkpt lat="46.4745268039" lon="6.8110197689"><ele></ele><time>2014-7-3T22:23:33Z</time></trkpt>
<trkpt lat="46.4744944498" lon="6.8110175058"><ele></ele><time>2014-7-3T22:23:36Z</time></trkpt>
<trkpt lat="46.4744975511" lon="6.8109970540"><ele></ele><time>2014-7-3T22:23:39Z</time></trkpt>
<trkpt lat="46.4744978864" lon="6.8110159971"><ele></ele><time>2014-7-3T22:23:42Z</time></trkpt>
<trkpt lat="46.4745033346" lon="6.8110233732"><ele></ele><time>2014-7-3T22:23:45Z</time></trkpt>
<trkpt lat="46.4745905064" lon="6.8111035042"><ele></ele><time>2014-7-3T22:23:48Z</time></trkpt>
<trkpt lat="46.4747490920" lon="6.8114816956"><ele></ele><time>2014-7-3T22:23:51Z</time></trkpt>
<trkpt lat="46.4748237748" lon="6.8115635868"><ele></ele><time>2014-7-3T22:23:54Z</time></trkpt>
<trkpt lat="46.4748232719" lon="6.8115662690"><ele></ele><time>2014-7-3T22:23:57Z</time></trkpt>
<trkpt lat="46.4748076815" lon="6.8115618266"><ele></ele><time>2014-7-3T22:24:0Z</time></trkpt>
<trkpt lat="46.4748210926" lon="6.8115675263"><ele></ele><time>2014-7-3T22:24:3Z</time></trkpt>
<trkpt lat="46.4748256188" lon="6.8116524350"><ele></ele><time>2014-7-3T22:24:6Z</time></trkpt>
<trkpt lat="46.4748067595" lon="6.8124425132"><ele></ele><time>2014-7-3T22:24:9Z</time></trkpt>
<trkpt lat="46.4746759180" lon="6.8134897482"><ele></ele><time>2014-7-3T22:24:12Z</time></trkpt>
<trkpt lat="46.4743918553" lon="6.8142184708"><ele></ele><time>2014-7-3T22:24:15Z</time></trkpt>
<trkpt lat="46.4743675478" lon="6.8153402209"><ele></ele><time>2014-7-3T22:24:18Z</time></trkpt>
<trkpt lat="46.4744188450" lon="6.8154630996"><ele></ele><time>2014-7-3T22:24:21Z</time></trkpt>
<trkpt lat="46.4745118842" lon="6.8160696980"><ele></ele><time>2014-7-3T22:24:24Z</time></trkpt>
<trkpt lat="46.4744049311" lon="6.8165390845"><ele></ele><time>2014-7-3T22:24:27Z</time></trkpt>
<trkpt lat="46.4744616766" lon="6.8179763295"><ele></ele><time>2014-7-3T22:24:30Z</time></trkpt>
<trkpt lat="46.4744889177" lon="6.8188379891"><ele></ele><time>2014-7-3T22:24:33Z</time></trkpt>
<trkpt lat="46.4744492713" lon="6.8190568406"><ele></ele><time>2014-7-3T22:24:36Z</time></trkpt>
<trkpt lat="46.4744889177" lon="6.8193205353"><ele></ele><time>2014-7-3T22:24:39Z</time></trkpt>
<trkpt lat="46.4747724775" lon="6.8197168317"><ele></ele><time>2014-7-3T22:24:42Z</time></trkpt>
<trkpt lat="46.4748869743" lon="6.8199024908"><ele></ele><time>2014-7-3T22:24:45Z</time></trkpt>
<trkpt lat="46.4748381916" lon="6.8202592246"><ele></ele><time>2014-7-3T22:24:48Z</time></trkpt>
<trkpt lat="46.4747475833" lon="6.8206622265"><ele></ele><time>2014-7-3T22:24:51Z</time></trkpt>
<trkpt lat="46.4748834539" lon="6.8209784757"><ele></ele><time>2014-7-3T22:24:54Z</time></trkpt>
<trkpt lat="46.4750337414" lon="6.8212542403"><ele></ele><time>2014-7-3T22:24:57Z</time></trkpt>
<trkpt lat="46.4751240984" lon="6.8214611057"><ele></ele><time>2014-7-3T22:25:0Z</time></trkpt>
<trkpt lat="46.4752063248" lon="6.8216418196"><ele></ele><time>2014-7-3T22:25:3Z</time></trkpt>
<trkpt lat="46.4751996193" lon="6.8218079489"><ele></ele><time>2014-7-3T22:25:6Z</time></trkpt>
<trkpt lat="46.4752276149" lon="6.8221758306"><ele></ele><time>2014-7-3T22:25:9Z</time></trkpt>
<trkpt lat="46.4752649143" lon="6.8225882202"><ele></ele><time>2014-7-3T22:25:12Z</time></trkpt>
<trkpt lat="46.4753625635" lon="6.8228763901"><ele></ele><time>2014-7-3T22:25:15Z</time></trkpt>
<trkpt lat="46.4753698558" lon="6.8228907231"><ele></ele><time>2014-7-3T22:25:18Z</time></trkpt>
<trkpt lat="46.4754954167" lon="6.8230008613"><ele></ele><time>2014-7-3T22:25:21Z</time></trkpt>
<trkpt lat="46.4755972568" lon="6.8229882885"><ele></ele><time>2014-7-3T22:25:24Z</time></trkpt>
<trkpt lat="46.4757231530" lon="6.8230620492"><ele></ele><time>2014-7-3T22:25:27Z</time></trkpt>
<trkpt lat="46.4758450259" lon="6.8232363090"><ele></ele><time>2014-7-3T22:25:30Z</time></trkpt>
<trkpt lat="46.4759403281" lon="6.8235018477"><ele></ele><time>2014-7-3T22:25:33Z</time></trkpt>
<trkpt lat="46.4760428388" lon="6.8237378821"><ele></ele><time>2014-7-3T22:25:36Z</time></trkpt>
<trkpt lat="46.4761912823" lon="6.8241433986"><ele></ele><time>2014-7-3T22:25:39Z</time></trkpt>
<trkpt lat="46.4762509614" lon="6.8245299719"><ele></ele><time>2014-7-3T22:25:42Z</time></trkpt>
<trkpt lat="46.4762576669" lon="6.8246384338"><ele></ele><time>2014-7-3T22:25:45Z</time></trkpt>
<trkpt lat="46.4762310125" lon="6.8247603904"><ele></ele><time>2014-7-3T22:25:48Z</time></trkpt>
<trkpt lat="46.4762769453" lon="6.8248620629"><ele></ele><time>2014-7-3T22:25:51Z</time></trkpt>
<trkpt lat="46.4763157535" lon="6.8250144459"><ele></ele><time>2014-7-3T22:25:54Z</time></trkpt>
<trkpt lat="46.4763182681" lon="6.8251850177"><ele></ele><time>2014-7-3T22:25:57Z</time></trkpt>
<trkpt lat="46.4764881693" lon="6.8256454356"><ele></ele><time>2014-7-3T22:26:0Z</time></trkpt>
<trkpt lat="46.4766552206" lon="6.8261649460"><ele></ele><time>2014-7-3T22:26:3Z</time></trkpt>
<trkpt lat="46.4767163247" lon="6.8265219312"><ele></ele><time>2014-7-3T22:26:6Z</time></trkpt>
<trkpt lat="46.4767096192" lon="6.8267318979"><ele></ele><time>2014-7-3T22:26:9Z</time></trkpt>
<trkpt lat="46.4767330047" lon="6.8268329836"><ele></ele><time>2014-7-3T22:26:12Z</time></trkpt>
<trkpt lat="46.4767917618" lon="6.8266882282"><ele></ele><time>2014-7-3T22:26:15Z</time></trkpt>
<trkpt lat="46.4768464956" lon="6.8264511880"><ele></ele><time>2014-7-3T22:26:18Z</time></trkpt>
<trkpt lat="46.4768055081" lon="6.8260491919"><ele></ele><time>2014-7-3T22:26:21Z</time></trkpt>
<trkpt lat="46.4768073522" lon="6.8257691525"><ele></ele><time>2014-7-3T22:26:24Z</time></trkpt>
<trkpt lat="46.4768827055" lon="6.8256569188"><ele></ele><time>2014-7-3T22:26:27Z</time></trkpt>
<trkpt lat="46.4769811090" lon="6.8254172802"><ele></ele><time>2014-7-3T22:26:30Z</time></trkpt>
<trkpt lat="46.4770377707" lon="6.8251453713"><ele></ele><time>2014-7-3T22:26:33Z</time></trkpt>
<trkpt lat="46.4770529419" lon="6.8251056410"><ele></ele><time>2014-7-3T22:26:36Z</time></trkpt>
<trkpt lat="46.4770677779" lon="6.8250277732"><ele></ele><time>2014-7-3T22:26:39Z</time></trkpt>
<trkpt lat="46.4770970307" lon="6.8248367496"><ele></ele><time>2014-7-3T22:26:42Z</time></trkpt>
<trkpt lat="46.4771650080" lon="6.8246929999"><ele></ele><time>2014-7-3T22:26:45Z</time></trkpt>
<trkpt lat="46.4771830291" lon="6.8246745598"><ele></ele><time>2014-7-3T22:26:48Z</time></trkpt>
<trkpt lat="46.4771904889" lon="6.8246398587"><ele></ele><time>2014-7-3T22:26:51Z</time></trkpt>
<trkpt lat="46.4771828614" lon="6.8245891482"><ele></ele><time>2014-7-3T22:26:54Z</time></trkpt>
<trkpt lat="46.4771644212" lon="6.8245216738"><ele></ele><time>2014-7-3T22:26:57Z</time></trkpt>
<trkpt lat="46.4771650080" lon="6.8244892359"><ele></ele><time>2014-7-3T22:27:0Z</time></trkpt>
<trkpt lat="46.4771993738" lon="6.8243935145"><ele></ele><time>2014-7-3T22:27:3Z</time></trkpt>
<trkpt lat="46.4772108570" lon="6.8243369367"><ele></ele><time>2014-7-3T22:27:6Z</time></trkpt>
<trkpt lat="46.4772193227" lon="6.8242371082"><ele></ele><time>2014-7-3T22:27:9Z</time></trkpt>
<trkpt lat="46.4772382658" lon="6.8241071049"><ele></ele><time>2014-7-3T22:27:12Z</time></trkpt>
<trkpt lat="46.4772768226" lon="6.8239669595"><ele></ele><time>2014-7-3T22:27:15Z</time></trkpt>
<trkpt lat="46.4772885572" lon="6.8238534685"><ele></ele><time>2014-7-3T22:27:18Z</time></trkpt>
<trkpt lat="46.4773085061" lon="6.8238436617"><ele></ele><time>2014-7-3T22:27:21Z</time></trkpt>
<trkpt lat="46.4773368370" lon="6.8238272332"><ele></ele><time>2014-7-3T22:27:24Z</time></trkpt>
<trkpt lat="46.4772850368" lon="6.8238403928"><ele></ele><time>2014-7-3T22:27:27Z</time></trkpt>
<trkpt lat="46.4772869647" lon="6.8238451704"><ele></ele><time>2014-7-3T22:27:30Z</time></trkpt>
<trkpt lat="46.4772755653" lon="6.8238398060"><ele></ele><time>2014-7-3T22:27:33Z</time></trkpt>
<trkpt lat="46.4773100987" lon="6.8238088768"><ele></ele><time>2014-7-3T22:27:36Z</time></trkpt>
<trkpt lat="46.4773038961" lon="6.8237704877"><ele></ele><time>2014-7-3T22:27:39Z</time></trkpt>
<trkpt lat="46.4773119427" lon="6.8238227069"><ele></ele><time>2014-7-3T22:27:42Z</time></trkpt>
<trkpt lat="46.4773387648" lon="6.8239583261"><ele></ele><time>2014-7-3T22:27:45Z</time></trkpt>
<trkpt lat="46.4774687681" lon="6.8241848890"><ele></ele><time>2014-7-3T22:27:48Z</time></trkpt>
<trkpt lat="46.4775441214" lon="6.8240955379"><ele></ele><time>2014-7-3T22:27:51Z</time></trkpt>
<trkpt lat="46.4776477218" lon="6.8238775246"><ele></ele><time>2014-7-3T22:27:54Z</time></trkpt>
<trkpt lat="46.4776732866" lon="6.8238377944"><ele></ele><time>2014-7-3T22:27:57Z</time></trkpt>
<trkpt lat="46.4777970035" lon="6.8237640336"><ele></ele><time>2014-7-3T22:28:0Z</time></trkpt>
<trkpt lat="46.4778783917" lon="6.8237134069"><ele></ele><time>2014-7-3T22:28:3Z</time></trkpt>
<trkpt lat="46.4779344667" lon="6.8237079587"><ele></ele><time>2014-7-3T22:28:6Z</time></trkpt>
<trkpt lat="46.4780013543" lon="6.8234855030"><ele></ele><time>2014-7-3T22:28:9Z</time></trkpt>
<trkpt lat="46.4779939782" lon="6.8231032882"><ele></ele><time>2014-7-3T22:28:12Z</time></trkpt>
<trkpt lat="46.4779946487" lon="6.8227624800"><ele></ele><time>2014-7-3T22:28:15Z</time></trkpt>
<trkpt lat="46.4780606143" lon="6.8223232683"><ele></ele><time>2014-7-3T22:28:18Z</time></trkpt>
<trkpt lat="46.4781080559" lon="6.8219616730"><ele></ele><time>2014-7-3T22:28:21Z</time></trkpt>
<trkpt lat="46.4781262446" lon="6.8216336053"><ele></ele><time>2014-7-3T22:28:24Z</time></trkpt>
<trkpt lat="46.4781493787" lon="6.8214840721"><ele></ele><time>2014-7-3T22:28:27Z</time></trkpt>
<trkpt lat="46.4781332854" lon="6.8211950641"><ele></ele><time>2014-7-3T22:28:30Z</time></trkpt>
<trkpt lat="46.4781469479" lon="6.8211109098"><ele></ele><time>2014-7-3T22:28:33Z</time></trkpt>
<trkpt lat="46.4781318605" lon="6.8209848460"><ele></ele><time>2014-7-3T22:28:36Z</time></trkpt>
<trkpt lat="46.4781104866" lon="6.8209265918"><ele></ele><time>2014-7-3T22:28:39Z</time></trkpt>
<trkpt lat="46.4781163540" lon="6.8208964169"><ele></ele><time>2014-7-3T22:28:42Z</time></trkpt>
<trkpt lat="46.4780726843" lon="6.8207790703"><ele></ele><time>2014-7-3T22:28:45Z</time></trkpt>
<trkpt lat="46.4780503046" lon="6.8206285313"><ele></ele><time>2014-7-3T22:28:48Z</time></trkpt>
<trkpt lat="46.4780825749" lon="6.8204807583"><ele></ele><time>2014-7-3T22:28:51Z</time></trkpt>
<trkpt lat="46.4782085549" lon="6.8205017969"><ele></ele><time>2014-7-3T22:28:54Z</time></trkpt>
<trkpt lat="46.4783288352" lon="6.8205546029"><ele></ele><time>2014-7-3T22:28:57Z</time></trkpt>
<trkpt lat="46.4783185255" lon="6.8205382582"><ele></ele><time>2014-7-3T22:29:0Z</time></trkpt>
<trkpt lat="46.4783828147" lon="6.8205634039"><ele></ele><time>2014-7-3T22:29:3Z</time></trkpt>
<trkpt lat="46.4784496184" lon="6.8205696903"><ele></ele><time>2014-7-3T22:29:6Z</time></trkpt>
<trkpt lat="46.4786450006" lon="6.8206807505"><ele></ele><time>2014-7-3T22:29:9Z</time></trkpt>
<trkpt lat="46.4787359443" lon="6.8208173756"><ele></ele><time>2014-7-3T22:29:12Z</time></trkpt>
<trkpt lat="46.4788464177" lon="6.8210499734"><ele></ele><time>2014-7-3T22:29:15Z</time></trkpt>
<trkpt lat="46.4789003972" lon="6.8212057091"><ele></ele><time>2014-7-3T22:29:18Z</time></trkpt>
<trkpt lat="46.4789764211" lon="6.8214392290"><ele></ele><time>2014-7-3T22:29:21Z</time></trkpt>
<trkpt lat="46.4790723100" lon="6.8216041010"><ele></ele><time>2014-7-3T22:29:24Z</time></trkpt>
<trkpt lat="46.4791220147" lon="6.8217794504"><ele></ele><time>2014-7-3T22:29:27Z</time></trkpt>
<trkpt lat="46.4791647624" lon="6.8218262214"><ele></ele><time>2014-7-3T22:29:30Z</time></trkpt>
<trkpt lat="46.4791814424" lon="6.8218539655"><ele></ele><time>2014-7-3T22:29:33Z</time></trkpt>
<trkpt lat="46.4792135451" lon="6.8219819572"><ele></ele><time>2014-7-3T22:29:36Z</time></trkpt>
<trkpt lat="46.4792747330" lon="6.8221283052"><ele></ele><time>2014-7-3T22:29:39Z</time></trkpt>
<trkpt lat="46.4793190733" lon="6.8222733960"><ele></ele><time>2014-7-3T22:29:42Z</time></trkpt>
<trkpt lat="46.4793282934" lon="6.8223699555"><ele></ele><time>2014-7-3T22:29:45Z</time></trkpt>
<trkpt lat="46.4793360885" lon="6.8224073388"><ele></ele><time>2014-7-3T22:29:48Z</time></trkpt>
<trkpt lat="46.4793765731" lon="6.8225834426"><ele></ele><time>2014-7-3T22:29:51Z</time></trkpt>
<trkpt lat="46.4793714602" lon="6.8226569518"><ele></ele><time>2014-7-3T22:29:54Z</time></trkpt>
<trkpt lat="46.4794098493" lon="6.8228794914"><ele></ele><time>2014-7-3T22:29:57Z</time></trkpt>
<trkpt lat="46.4794225059" lon="6.8229451217"><ele></ele><time>2014-7-3T22:30:0Z</time></trkpt>
<trkpt lat="46.4794254396" lon="6.8229856901"><ele></ele><time>2014-7-3T22:30:3Z</time></trkpt>
<trkpt lat="46.4794795867" lon="6.8231525738"><ele></ele><time>2014-7-3T22:30:6Z</time></trkpt>
<trkpt lat="46.4795034751" lon="6.8231747858"><ele></ele><time>2014-7-3T22:30:9Z</time></trkpt>
<trkpt lat="46.4795409422" lon="6.8233631272"><ele></ele><time>2014-7-3T22:30:12Z</time></trkpt>
<trkpt lat="46.4795608912" lon="6.8234033603"><ele></ele><time>2014-7-3T22:30:15Z</time></trkpt>
<trkpt lat="46.4796007890" lon="6.8237239681"><ele></ele><time>2014-7-3T22:30:18Z</time></trkpt>
<trkpt lat="46.4796481468" lon="6.8238888402"><ele></ele><time>2014-7-3T22:30:21Z</time></trkpt>
<trkpt lat="46.4796593785" lon="6.8242380302"><ele></ele><time>2014-7-3T22:30:24Z</time></trkpt>
<trkpt lat="46.4796823449" lon="6.8245636672"><ele></ele><time>2014-7-3T22:30:27Z</time></trkpt>
<trkpt lat="46.4797146153" lon="6.8246875517"><ele></ele><time>2014-7-3T22:30:30Z</time></trkpt>
<trkpt lat="46.4797545969" lon="6.8248271104"><ele></ele><time>2014-7-3T22:30:33Z</time></trkpt>
<trkpt lat="46.4798070677" lon="6.8250219896"><ele></ele><time>2014-7-3T22:30:36Z</time></trkpt>
<trkpt lat="46.4798747096" lon="6.8251659907"><ele></ele><time>2014-7-3T22:30:39Z</time></trkpt>
<trkpt lat="46.4799531642" lon="6.8255197071"><ele></ele><time>2014-7-3T22:30:42Z</time></trkpt>
<trkpt lat="46.4799823333" lon="6.8256493751"><ele></ele><time>2014-7-3T22:30:45Z</time></trkpt>
<trkpt lat="46.4800711814" lon="6.8258859124"><ele></ele><time>2014-7-3T22:30:48Z</time></trkpt>
<trkpt lat="46.4801188745" lon="6.8257927056"><ele></ele><time>2014-7-3T22:30:51Z</time></trkpt>
<trkpt lat="46.4801135100" lon="6.8253857642"><ele></ele><time>2014-7-3T22:30:54Z</time></trkpt>
<trkpt lat="46.4801261667" lon="6.8249737099"><ele></ele><time>2014-7-3T22:30:57Z</time></trkpt>
<trkpt lat="46.4802352991" lon="6.8246148806"><ele></ele><time>2014-7-3T22:31:0Z</time></trkpt>
<trkpt lat="46.4802990016" lon="6.8245443050"><ele></ele><time>2014-7-3T22:31:3Z</time></trkpt>
<trkpt lat="46.4803286735" lon="6.8245475739"><ele></ele><time>2014-7-3T22:31:6Z</time></trkpt>
<trkpt lat="46.4803340379" lon="6.8245212547"><ele></ele><time>2014-7-3T22:31:9Z</time></trkpt>
<trkpt lat="46.4803383127" lon="6.8245995417"><ele></ele><time>2014-7-3T22:31:12Z</time></trkpt>
<trkpt lat="46.4803733490" lon="6.8246756494"><ele></ele><time>2014-7-3T22:31:15Z</time></trkpt>
<trkpt lat="46.4803945553" lon="6.8247598875"><ele></ele><time>2014-7-3T22:31:18Z</time></trkpt>
<trkpt lat="46.4804839902" lon="6.8250861112"><ele></ele><time>2014-7-3T22:31:21Z</time></trkpt>
<trkpt lat="46.4805536438" lon="6.8254133407"><ele></ele><time>2014-7-3T22:31:24Z</time></trkpt>
<trkpt lat="46.4806087967" lon="6.8257430010"><ele></ele><time>2014-7-3T22:31:27Z</time></trkpt>
<trkpt lat="46.4806355350" lon="6.8260730803"><ele></ele><time>2014-7-3T22:31:30Z</time></trkpt>
<trkpt lat="46.4807027578" lon="6.8265123758"><ele></ele><time>2014-7-3T22:31:33Z</time></trkpt>
<trkpt lat="46.4809165802" lon="6.8272782303"><ele></ele><time>2014-7-3T22:31:36Z</time></trkpt>
<trkpt lat="46.4810594916" lon="6.8278874271"><ele></ele><time>2014-7-3T22:31:39Z</time></trkpt>
<trkpt lat="46.4811509382" lon="6.8285128009"><ele></ele><time>2014-7-3T22:31:42Z</time></trkpt>
<trkpt lat="46.4812171552" lon="6.8288668524"><ele></ele><time>2014-7-3T22:31:45Z</time></trkpt>
<trkpt lat="46.4812350087" lon="6.8292650767"><ele></ele><time>2014-7-3T22:31:48Z</time></trkpt>
<trkpt lat="46.4812360983" lon="6.8293479737"><ele></ele><time>2014-7-3T22:31:51Z</time></trkpt>
<trkpt lat="46.4812430553" lon="6.8297040369"><ele></ele><time>2014-7-3T22:31:54Z</time></trkpt>
<trkpt lat="46.4812962804" lon="6.8300071266"><ele></ele><time>2014-7-3T22:31:57Z</time></trkpt>
<trkpt lat="46.4813451469" lon="6.8301866669"><ele></ele><time>2014-7-3T22:32:0Z</time></trkpt>
<trkpt lat="46.4813641738" lon="6.8302491959"><ele></ele><time>2014-7-3T22:32:3Z</time></trkpt>
<trkpt lat="46.4813859668" lon="6.8303652853"><ele></ele><time>2014-7-3T22:32:6Z</time></trkpt>
<trkpt lat="46.4814255293" lon="6.8306391221"><ele></ele><time>2014-7-3T22:32:9Z</time></trkpt>
<trkpt lat="46.4814337436" lon="6.8306854740"><ele></ele><time>2014-7-3T22:32:12Z</time></trkpt>
<trkpt lat="46.4814787544" lon="6.8309675250"><ele></ele><time>2014-7-3T22:32:15Z</time></trkpt>
<trkpt lat="46.4814821072" lon="6.8309853785"><ele></ele><time>2014-7-3T22:32:18Z</time></trkpt>
<trkpt lat="46.4814925008" lon="6.8311335705"><ele></ele><time>2014-7-3T22:32:21Z</time></trkpt>
<trkpt lat="46.4815551136" lon="6.8314566929"><ele></ele><time>2014-7-3T22:32:24Z</time></trkpt>
<trkpt lat="46.4815919101" lon="6.8316830043"><ele></ele><time>2014-7-3T22:32:27Z</time></trkpt>
<trkpt lat="46.4816243481" lon="6.8318069726"><ele></ele><time>2014-7-3T22:32:30Z</time></trkpt>
<trkpt lat="46.4816913195" lon="6.8321099784"><ele></ele><time>2014-7-3T22:32:33Z</time></trkpt>
<trkpt lat="46.4816952590" lon="6.8322244752"><ele></ele><time>2014-7-3T22:32:36Z</time></trkpt>
<trkpt lat="46.4818038885" lon="6.8324346934"><ele></ele><time>2014-7-3T22:32:39Z</time></trkpt>
<trkpt lat="46.4818023797" lon="6.8325472623"><ele></ele><time>2014-7-3T22:32:42Z</time></trkpt>
<trkpt lat="46.4818686806" lon="6.8327283952"><ele></ele><time>2014-7-3T22:32:45Z</time></trkpt>
<trkpt lat="46.4819704369" lon="6.8328687083"><ele></ele><time>2014-7-3T22:32:48Z</time></trkpt>
<trkpt lat="46.4819885418" lon="6.8328907527"><ele></ele><time>2014-7-3T22:32:51Z</time></trkpt>
<trkpt lat="46.4820238296" lon="6.8328806944"><ele></ele><time>2014-7-3T22:32:54Z</time></trkpt>
<trkpt lat="46.4820278529" lon="6.8328835443"><ele></ele><time>2014-7-3T22:32:57Z</time></trkpt>
<trkpt lat="46.4820439462" lon="6.8328890763"><ele></ele><time>2014-7-3T22:33:0Z</time></trkpt>
<trkpt lat="46.4819960017" lon="6.8329275493"><ele></ele><time>2014-7-3T22:33:3Z</time></trkpt>
<trkpt lat="46.4820052218" lon="6.8329179101"><ele></ele><time>2014-7-3T22:33:6Z</time></trkpt>
<trkpt lat="46.4820020366" lon="6.8329371884"><ele></ele><time>2014-7-3T22:33:9Z</time></trkpt>
<trkpt lat="46.4819830935" lon="6.8329487555"><ele></ele><time>2014-7-3T22:33:12Z</time></trkpt>
<trkpt lat="46.4820205607" lon="6.8329662737"><ele></ele><time>2014-7-3T22:33:15Z</time></trkpt>
<trkpt lat="46.4820524119" lon="6.8329209276"><ele></ele><time>2014-7-3T22:33:18Z</time></trkpt>
<trkpt lat="46.4819882065" lon="6.8329651840"><ele></ele><time>2014-7-3T22:33:21Z</time></trkpt>
<trkpt lat="46.4819760527" lon="6.8329154793"><ele></ele><time>2014-7-3T22:33:24Z</time></trkpt>
<trkpt lat="46.4820020366" lon="6.8328792695"><ele></ele><time>2014-7-3T22:33:27Z</time></trkpt>
<trkpt lat="46.4820358157" lon="6.8328210991"><ele></ele><time>2014-7-3T22:33:30Z</time></trkpt>
<trkpt lat="46.4820034616" lon="6.8323672190"><ele></ele><time>2014-7-3T22:33:33Z</time></trkpt>
<trkpt lat="46.4819879550" lon="6.8321217131"><ele></ele><time>2014-7-3T22:33:36Z</time></trkpt>
<trkpt lat="46.4820959978" lon="6.8316527456"><ele></ele><time>2014-7-3T22:33:39Z</time></trkpt>
<trkpt lat="46.4821954072" lon="6.8311106041"><ele></ele><time>2014-7-3T22:33:42Z</time></trkpt>
<trkpt lat="46.4822247438" lon="6.8305207696"><ele></ele><time>2014-7-3T22:33:45Z</time></trkpt>
<trkpt lat="46.4822137635" lon="6.8300149217"><ele></ele><time>2014-7-3T22:33:48Z</time></trkpt>
<trkpt lat="46.4821967483" lon="6.8295540009"><ele></ele><time>2014-7-3T22:33:51Z</time></trkpt>
<trkpt lat="46.4822005201" lon="6.8291085865"><ele></ele><time>2014-7-3T22:33:54Z</time></trkpt>
<trkpt lat="46.4821904618" lon="6.8286769185"><ele></ele><time>2014-7-3T22:33:57Z</time></trkpt>
<trkpt lat="46.4821876958" lon="6.8285138067"><ele></ele><time>2014-7-3T22:34:0Z</time></trkpt>
<trkpt lat="46.4822037891" lon="6.8284123857"><ele></ele><time>2014-7-3T22:34:3Z</time></trkpt>
<trkpt lat="46.4822379872" lon="6.8279841542"><ele></ele><time>2014-7-3T22:34:6Z</time></trkpt>
<trkpt lat="46.4822497219" lon="6.8274553400"><ele></ele><time>2014-7-3T22:34:9Z</time></trkpt>
<trkpt lat="46.4823216386" lon="6.8270372506"><ele></ele><time>2014-7-3T22:34:12Z</time></trkpt>
<trkpt lat="46.4824535698" lon="6.8264547922"><ele></ele><time>2014-7-3T22:34:15Z</time></trkpt>
<trkpt lat="46.4825553261" lon="6.8260544725"><ele></ele><time>2014-7-3T22:34:18Z</time></trkpt>
<trkpt lat="46.4826093055" lon="6.8259125669"><ele></ele><time>2014-7-3T22:34:21Z</time></trkpt>
<trkpt lat="46.4827728365" lon="6.8254091498"><ele></ele><time>2014-7-3T22:34:24Z</time></trkpt>
<trkpt lat="46.4829161670" lon="6.8248550221"><ele></ele><time>2014-7-3T22:34:27Z</time></trkpt>
<trkpt lat="46.4830040932" lon="6.8245008867"><ele></ele><time>2014-7-3T22:34:30Z</time></trkpt>
<trkpt lat="46.4830923546" lon="6.8242150638"><ele></ele><time>2014-7-3T22:34:33Z</time></trkpt>
<trkpt lat="46.4831335098" lon="6.8241024949"><ele></ele><time>2014-7-3T22:34:36Z</time></trkpt>
<trkpt lat="46.4832712244" lon="6.8236397300"><ele></ele><time>2014-7-3T22:34:39Z</time></trkpt>
<trkpt lat="46.4834013116" lon="6.8232458644"><ele></ele><time>2014-7-3T22:34:42Z</time></trkpt>
<trkpt lat="46.4835410379" lon="6.8227789085"><ele></ele><time>2014-7-3T22:34:45Z</time></trkpt>
<trkpt lat="46.4836311433" lon="6.8222428858"><ele></ele><time>2014-7-3T22:34:48Z</time></trkpt>
<trkpt lat="46.4837336540" lon="6.8218061049"><ele></ele><time>2014-7-3T22:34:51Z</time></trkpt>
<trkpt lat="46.4838513359" lon="6.8212818168"><ele></ele><time>2014-7-3T22:34:54Z</time></trkpt>
<trkpt lat="46.4840171300" lon="6.8206979334"><ele></ele><time>2014-7-3T22:34:57Z</time></trkpt>
<trkpt lat="46.4841595385" lon="6.8203229271"><ele></ele><time>2014-7-3T22:35:0Z</time></trkpt>
<trkpt lat="46.4842352271" lon="6.8203695305"><ele></ele><time>2014-7-3T22:35:3Z</time></trkpt>
<trkpt lat="46.4845001791" lon="6.8206261005"><ele></ele><time>2014-7-3T22:35:6Z</time></trkpt>
<trkpt lat="46.4845844172" lon="6.8208783958"><ele></ele><time>2014-7-3T22:35:9Z</time></trkpt>
<trkpt lat="46.4846004266" lon="6.8210208882"><ele></ele><time>2014-7-3T22:35:12Z</time></trkpt>
<trkpt lat="46.4845794719" lon="6.8213979900"><ele></ele><time>2014-7-3T22:35:15Z</time></trkpt>
<trkpt lat="46.4845610317" lon="6.8216928653"><ele></ele><time>2014-7-3T22:35:18Z</time></trkpt>
<trkpt lat="46.4845284261" lon="6.8220552988"><ele></ele><time>2014-7-3T22:35:21Z</time></trkpt>
<trkpt lat="46.4845226426" lon="6.8222053349"><ele></ele><time>2014-7-3T22:35:24Z</time></trkpt>
<trkpt lat="46.4845231455" lon="6.8223731406"><ele></ele><time>2014-7-3T22:35:27Z</time></trkpt>
<trkpt lat="46.4846192859" lon="6.8227223307"><ele></ele><time>2014-7-3T22:35:30Z</time></trkpt>
<trkpt lat="46.4847044460" lon="6.8230220675"><ele></ele><time>2014-7-3T22:35:33Z</time></trkpt>
<trkpt lat="46.4847849123" lon="6.8233303539"><ele></ele><time>2014-7-3T22:35:36Z</time></trkpt>
<trkpt lat="46.4848511294" lon="6.8236704078"><ele></ele><time>2014-7-3T22:35:39Z</time></trkpt>
<trkpt lat="46.4849072043" lon="6.8240325898"><ele></ele><time>2014-7-3T22:35:42Z</time></trkpt>
<trkpt lat="46.4849486947" lon="6.8243458215"><ele></ele><time>2014-7-3T22:35:45Z</time></trkpt>
<trkpt lat="46.4849680569" lon="6.8246281240"><ele></ele><time>2014-7-3T22:35:48Z</time></trkpt>
<trkpt lat="46.4849819709" lon="6.8247813452"><ele></ele><time>2014-7-3T22:35:51Z</time></trkpt>
<trkpt lat="46.4849652909" lon="6.8249638192"><ele></ele><time>2014-7-3T22:35:54Z</time></trkpt>
<trkpt lat="46.4849620219" lon="6.8249594606"><ele></ele><time>2014-7-3T22:35:57Z</time></trkpt>
<trkpt lat="46.4849184360" lon="6.8249431998"><ele></ele><time>2014-7-3T22:36:0Z</time></trkpt>
<trkpt lat="46.4846980758" lon="6.8250249233"><ele></ele><time>2014-7-3T22:36:3Z</time></trkpt>
<trkpt lat="46.4845982473" lon="6.8250484765"><ele></ele><time>2014-7-3T22:36:6Z</time></trkpt>
<trkpt lat="46.4845564216" lon="6.8250780646"><ele></ele><time>2014-7-3T22:36:9Z</time></trkpt>
<trkpt lat="46.4845825732" lon="6.8250877038"><ele></ele><time>2014-7-3T22:36:12Z</time></trkpt>
<trkpt lat="46.4845504705" lon="6.8250729516"><ele></ele><time>2014-7-3T22:36:15Z</time></trkpt>
<trkpt lat="46.4844572637" lon="6.8250796571"><ele></ele><time>2014-7-3T22:36:18Z</time></trkpt>
<trkpt lat="46.4843671583" lon="6.8251105864"><ele></ele><time>2014-7-3T22:36:21Z</time></trkpt>
<trkpt lat="46.4843519870" lon="6.8251245841"><ele></ele><time>2014-7-3T22:36:24Z</time></trkpt>
<trkpt lat="46.4843076468" lon="6.8251393363"><ele></ele><time>2014-7-3T22:36:27Z</time></trkpt>
<trkpt lat="46.4842690062" lon="6.8250972591"><ele></ele><time>2014-7-3T22:36:30Z</time></trkpt>
<trkpt lat="46.4842338022" lon="6.8250053935"><ele></ele><time>2014-7-3T22:36:33Z</time></trkpt>
<trkpt lat="46.4842332993" lon="6.8250197265"><ele></ele><time>2014-7-3T22:36:36Z</time></trkpt>
<trkpt lat="46.4841495641" lon="6.8253743649"><ele></ele><time>2014-7-3T22:36:39Z</time></trkpt>
<trkpt lat="46.4840256795" lon="6.8256281689"><ele></ele><time>2014-7-3T22:36:42Z</time></trkpt>
<trkpt lat="46.4838182274" lon="6.8259339407"><ele></ele><time>2014-7-3T22:36:45Z</time></trkpt>
<trkpt lat="46.4836926665" lon="6.8262588233"><ele></ele><time>2014-7-3T22:36:48Z</time></trkpt>
<trkpt lat="46.4835625794" lon="6.8266056664"><ele></ele><time>2014-7-3T22:36:51Z</time></trkpt>
<trkpt lat="46.4832583163" lon="6.8275666516"><ele></ele><time>2014-7-3T22:36:54Z</time></trkpt>
<trkpt lat="46.4832121320" lon="6.8277365528"><ele></ele><time>2014-7-3T22:36:57Z</time></trkpt>
<trkpt lat="46.4830995630" lon="6.8278627004"><ele></ele><time>2014-7-3T22:37:0Z</time></trkpt>
<trkpt lat="46.4827877562" lon="6.8280149158"><ele></ele><time>2014-7-3T22:37:3Z</time></trkpt>
<trkpt lat="46.4827277418" lon="6.8277453538"><ele></ele><time>2014-7-3T22:37:6Z</time></trkpt>
<trkpt lat="46.4827429969" lon="6.8276783824"><ele></ele><time>2014-7-3T22:37:9Z</time></trkpt>
<trkpt lat="46.4827950485" lon="6.8274614587"><ele></ele><time>2014-7-3T22:37:12Z</time></trkpt>
<trkpt lat="46.4828053582" lon="6.8271594588"><ele></ele><time>2014-7-3T22:37:15Z</time></trkpt>
<trkpt lat="46.4827946294" lon="6.8265763298"><ele></ele><time>2014-7-3T22:37:18Z</time></trkpt>
<trkpt lat="46.4828134887" lon="6.8262219429"><ele></ele><time>2014-7-3T22:37:21Z</time></trkpt>
<trkpt lat="46.4826417435" lon="6.8259341922"><ele></ele><time>2014-7-3T22:37:24Z</time></trkpt>
<trkpt lat="46.4825212117" lon="6.8261643592"><ele></ele><time>2014-7-3T22:37:27Z</time></trkpt>
<trkpt lat="46.4823016897" lon="6.8271240033"><ele></ele><time>2014-7-3T22:37:30Z</time></trkpt>
<trkpt lat="46.4822638035" lon="6.8273693416"><ele></ele><time>2014-7-3T22:37:33Z</time></trkpt>
<trkpt lat="46.4822078962" lon="6.8281628564"><ele></ele><time>2014-7-3T22:37:36Z</time></trkpt>
<trkpt lat="46.4821776375" lon="6.8284205999"><ele></ele><time>2014-7-3T22:37:39Z</time></trkpt>
<trkpt lat="46.4822086506" lon="6.8284483440"><ele></ele><time>2014-7-3T22:37:42Z</time></trkpt>
<trkpt lat="46.4821926411" lon="6.8284475058"><ele></ele><time>2014-7-3T22:37:45Z</time></trkpt>
<trkpt lat="46.4821918029" lon="6.8284712266"><ele></ele><time>2014-7-3T22:37:48Z</time></trkpt>
<trkpt lat="46.4821999334" lon="6.8284941092"><ele></ele><time>2014-7-3T22:37:51Z</time></trkpt>
<trkpt lat="46.4822103269" lon="6.8287143856"><ele></ele><time>2014-7-3T22:37:54Z</time></trkpt>
<trkpt lat="46.4822192956" lon="6.8288982846"><ele></ele><time>2014-7-3T22:37:57Z</time></trkpt>
<trkpt lat="46.4822203014" lon="6.8300748523"><ele></ele><time>2014-7-3T22:38:0Z</time></trkpt>
<trkpt lat="46.4821548387" lon="6.8314112630"><ele></ele><time>2014-7-3T22:38:3Z</time></trkpt>
<trkpt lat="46.4820277691" lon="6.8317658175"><ele></ele><time>2014-7-3T22:38:6Z</time></trkpt>
<trkpt lat="46.4819735382" lon="6.8321984075"><ele></ele><time>2014-7-3T22:38:9Z</time></trkpt>
<trkpt lat="46.4820142742" lon="6.8334874604"><ele></ele><time>2014-7-3T22:38:12Z</time></trkpt>
<trkpt lat="46.4820839278" lon="6.8350419682"><ele></ele><time>2014-7-3T22:38:15Z</time></trkpt>
<trkpt lat="46.4824265800" lon="6.8365255650"><ele></ele><time>2014-7-3T22:38:18Z</time></trkpt>
<trkpt lat="46.4829589147" lon="6.8375012185"><ele></ele><time>2014-7-3T22:38:21Z</time></trkpt>
<trkpt lat="46.4830900915" lon="6.8377053179"><ele></ele><time>2014-7-3T22:38:24Z</time></trkpt>
<trkpt lat="46.4837668464" lon="6.8380367383"><ele></ele><time>2014-7-3T22:38:27Z</time></trkpt>
<trkpt lat="46.4848429989" lon="6.8386243097"><ele></ele><time>2014-7-3T22:38:30Z</time></trkpt>
<trkpt lat="46.4849300869" lon="6.8386452645"><ele></ele><time>2014-7-3T22:38:33Z</time></trkpt>
<trkpt lat="46.4851708151" lon="6.8389775231"><ele></ele><time>2014-7-3T22:38:36Z</time></trkpt>
<trkpt lat="46.4857438859" lon="6.8395841215"><ele></ele><time>2014-7-3T22:38:39Z</time></trkpt>
<trkpt lat="46.4869755227" lon="6.8401074037"><ele></ele><time>2014-7-3T22:38:42Z</time></trkpt>
<trkpt lat="46.4874229487" lon="6.8400059827"><ele></ele><time>2014-7-3T22:38:45Z</time></trkpt>
<trkpt lat="46.4877439756" lon="6.8401623890"><ele></ele><time>2014-7-3T22:38:48Z</time></trkpt>
<trkpt lat="46.4884204790" lon="6.8410262279"><ele></ele><time>2014-7-3T22:38:51Z</time></trkpt>
<trkpt lat="46.4884761348" lon="6.8410833925"><ele></ele><time>2014-7-3T22:38:54Z</time></trkpt>
<trkpt lat="46.4884923957" lon="6.8416183256"><ele></ele><time>2014-7-3T22:38:57Z</time></trkpt>
<trkpt lat="46.4875218552" lon="6.8432348594"><ele></ele><time>2014-7-3T22:39:0Z</time></trkpt>
<trkpt lat="46.4866626263" lon="6.8447778840"><ele></ele><time>2014-7-3T22:39:3Z</time></trkpt>
<trkpt lat="46.4863588661" lon="6.8452621065"><ele></ele><time>2014-7-3T22:39:6Z</time></trkpt>
<trkpt lat="46.4862291981" lon="6.8456264678"><ele></ele><time>2014-7-3T22:39:9Z</time></trkpt>
<trkpt lat="46.4862364065" lon="6.8460384384"><ele></ele><time>2014-7-3T22:39:12Z</time></trkpt>
<trkpt lat="46.4863328822" lon="6.8463638239"><ele></ele><time>2014-7-3T22:39:15Z</time></trkpt>
<trkpt lat="46.4865920506" lon="6.8467131816"><ele></ele><time>2014-7-3T22:39:18Z</time></trkpt>
<trkpt lat="46.4866772946" lon="6.8471927941"><ele></ele><time>2014-7-3T22:39:21Z</time></trkpt>
<trkpt lat="46.4866867661" lon="6.8474382162"><ele></ele><time>2014-7-3T22:39:24Z</time></trkpt>
<trkpt lat="46.4870220423" lon="6.8485962600"><ele></ele><time>2014-7-3T22:39:27Z</time></trkpt>
<trkpt lat="46.4870426618" lon="6.8486598786"><ele></ele><time>2014-7-3T22:39:30Z</time></trkpt>
<trkpt lat="46.4869530592" lon="6.8487791531"><ele></ele><time>2014-7-3T22:39:33Z</time></trkpt>
<trkpt lat="46.4869268239" lon="6.8487690110"><ele></ele><time>2014-7-3T22:39:36Z</time></trkpt>
<trkpt lat="46.4867639635" lon="6.8487515766"><ele></ele><time>2014-7-3T22:39:39Z</time></trkpt>
<trkpt lat="46.4865901228" lon="6.8488644809"><ele></ele><time>2014-7-3T22:39:42Z</time></trkpt>
<trkpt lat="46.4864996821" lon="6.8489462882"><ele></ele><time>2014-7-3T22:39:45Z</time></trkpt>
<trkpt lat="46.4862794895" lon="6.8489296082"><ele></ele><time>2014-7-3T22:39:48Z</time></trkpt>
<trkpt lat="46.4861922339" lon="6.8488765508"><ele></ele><time>2014-7-3T22:39:51Z</time></trkpt>
<trkpt lat="46.4857903216" lon="6.8486120179"><ele></ele><time>2014-7-3T22:39:54Z</time></trkpt>
<trkpt lat="46.4856422972" lon="6.8485298753"><ele></ele><time>2014-7-3T22:39:57Z</time></trkpt>
<trkpt lat="46.4853444882" lon="6.8481168151"><ele></ele><time>2014-7-3T22:40:0Z</time></trkpt>
<trkpt lat="46.4846728463" lon="6.8469729368"><ele></ele><time>2014-7-3T22:40:3Z</time></trkpt>
<trkpt lat="46.4841555152" lon="6.8464820087"><ele></ele><time>2014-7-3T22:40:6Z</time></trkpt>
<trkpt lat="46.4839723706" lon="6.8462681863"><ele></ele><time>2014-7-3T22:40:9Z</time></trkpt>
<trkpt lat="46.4837831911" lon="6.8459937628"><ele></ele><time>2014-7-3T22:40:12Z</time></trkpt>
<trkpt lat="46.4836465660" lon="6.8456630129"><ele></ele><time>2014-7-3T22:40:15Z</time></trkpt>
<trkpt lat="46.4836111944" lon="6.8450027704"><ele></ele><time>2014-7-3T22:40:18Z</time></trkpt>
<trkpt lat="46.4836375136" lon="6.8438944314"><ele></ele><time>2014-7-3T22:40:21Z</time></trkpt>
<trkpt lat="46.4835684467" lon="6.8438648432"><ele></ele><time>2014-7-3T22:40:24Z</time></trkpt>
<trkpt lat="46.4834460709" lon="6.8439382687"><ele></ele><time>2014-7-3T22:40:27Z</time></trkpt>
<trkpt lat="46.4828218706" lon="6.8443619739"><ele></ele><time>2014-7-3T22:40:30Z</time></trkpt>
<trkpt lat="46.4822014421" lon="6.8448166084"><ele></ele><time>2014-7-3T22:40:33Z</time></trkpt>
<trkpt lat="46.4819669165" lon="6.8448763713"><ele></ele><time>2014-7-3T22:40:36Z</time></trkpt>
<trkpt lat="46.4818975981" lon="6.8447777163"><ele></ele><time>2014-7-3T22:40:39Z</time></trkpt>
<trkpt lat="46.4818893839" lon="6.8447662331"><ele></ele><time>2014-7-3T22:40:42Z</time></trkpt>
<trkpt lat="46.4819537569" lon="6.8446075637"><ele></ele><time>2014-7-3T22:40:45Z</time></trkpt>
<trkpt lat="46.4823441021" lon="6.8437939323"><ele></ele><time>2014-7-3T22:40:48Z</time></trkpt>
<trkpt lat="46.4821715187" lon="6.8433261383"><ele></ele><time>2014-7-3T22:40:51Z</time></trkpt>
<trkpt lat="46.4820164535" lon="6.8433610909"><ele></ele><time>2014-7-3T22:40:54Z</time></trkpt>
<trkpt lat="46.4818654116" lon="6.8434475083"><ele></ele><time>2014-7-3T22:40:57Z</time></trkpt>
<trkpt lat="46.4813505113" lon="6.8435220234"><ele></ele><time>2014-7-3T22:41:0Z</time></trkpt>
<trkpt lat="46.4801846724" lon="6.8429221306"><ele></ele><time>2014-7-3T22:41:3Z</time></trkpt>
<trkpt lat="46.4799291082" lon="6.8427679036"><ele></ele><time>2014-7-3T22:41:6Z</time></trkpt>
<trkpt lat="46.4796668384" lon="6.8424259219"><ele></ele><time>2014-7-3T22:41:9Z</time></trkpt>
<trkpt lat="46.4788948651" lon="6.8407953065"><ele></ele><time>2014-7-3T22:41:12Z</time></trkpt>
<trkpt lat="46.4777795691" lon="6.8389196042"><ele></ele><time>2014-7-3T22:41:15Z</time></trkpt>
<trkpt lat="46.4772344101" lon="6.8374411203"><ele></ele><time>2014-7-3T22:41:18Z</time></trkpt>
<trkpt lat="46.4770989586" lon="6.8357977644"><ele></ele><time>2014-7-3T22:41:21Z</time></trkpt>
<trkpt lat="46.4771477412" lon="6.8347231206"><ele></ele><time>2014-7-3T22:41:24Z</time></trkpt>
<trkpt lat="46.4769552089" lon="6.8342095613"><ele></ele><time>2014-7-3T22:41:27Z</time></trkpt>
<trkpt lat="46.4768524468" lon="6.8342709169"><ele></ele><time>2014-7-3T22:41:30Z</time></trkpt>
<trkpt lat="46.4766137302" lon="6.8347920198"><ele></ele><time>2014-7-3T22:41:33Z</time></trkpt>
<trkpt lat="46.4766264707" lon="6.8349014036"><ele></ele><time>2014-7-3T22:41:36Z</time></trkpt>
<trkpt lat="46.4765099622" lon="6.8362457771"><ele></ele><time>2014-7-3T22:41:39Z</time></trkpt>
<trkpt lat="46.4763146639" lon="6.8372589815"><ele></ele><time>2014-7-3T22:41:42Z</time></trkpt>
<trkpt lat="46.4761775360" lon="6.8375609815"><ele></ele><time>2014-7-3T22:41:45Z</time></trkpt>
<trkpt lat="46.4761521388" lon="6.8374233507"><ele></ele><time>2014-7-3T22:41:48Z</time></trkpt>
<trkpt lat="46.4761763625" lon="6.8367107213"><ele></ele><time>2014-7-3T22:41:51Z</time></trkpt>
<trkpt lat="46.4761387277" lon="6.8351070955"><ele></ele><time>2014-7-3T22:41:54Z</time></trkpt>
<trkpt lat="46.4760876819" lon="6.8344227131"><ele></ele><time>2014-7-3T22:41:57Z</time></trkpt>
<trkpt lat="46.4760577586" lon="6.8339874409"><ele></ele><time>2014-7-3T22:42:0Z</time></trkpt>
<trkpt lat="46.4760401566" lon="6.8335220776"><ele></ele><time>2014-7-3T22:42:3Z</time></trkpt>
<trkpt lat="46.4759622049" lon="6.8327324186"><ele></ele><time>2014-7-3T22:42:6Z</time></trkpt>
<trkpt lat="46.4759484585" lon="6.8325769342"><ele></ele><time>2014-7-3T22:42:9Z</time></trkpt>
<trkpt lat="46.4758418407" lon="6.8325709831"><ele></ele><time>2014-7-3T22:42:12Z</time></trkpt>
<trkpt lat="46.4756378252" lon="6.8328371085"><ele></ele><time>2014-7-3T22:42:15Z</time></trkpt>
<trkpt lat="46.4756126795" lon="6.8328825384"><ele></ele><time>2014-7-3T22:42:18Z</time></trkpt>
<trkpt lat="46.4755743742" lon="6.8330458179"><ele></ele><time>2014-7-3T22:42:21Z</time></trkpt>
<trkpt lat="46.4754049759" lon="6.8336136080"><ele></ele><time>2014-7-3T22:42:24Z</time></trkpt>
<trkpt lat="46.4753416926" lon="6.8337467127"><ele></ele><time>2014-7-3T22:42:27Z</time></trkpt>
<trkpt lat="46.4752803370" lon="6.8340675719"><ele></ele><time>2014-7-3T22:42:30Z</time></trkpt>
<trkpt lat="46.4752136171" lon="6.8341535702"><ele></ele><time>2014-7-3T22:42:33Z</time></trkpt>
<trkpt lat="46.4747082721" lon="6.8345483579"><ele></ele><time>2014-7-3T22:42:36Z</time></trkpt>
<trkpt lat="46.4744275622" lon="6.8347670417"><ele></ele><time>2014-7-3T22:42:39Z</time></trkpt>
<trkpt lat="46.4741424937" lon="6.8349392898"><ele></ele><time>2014-7-3T22:42:42Z</time></trkpt>
<trkpt lat="46.4737450238" lon="6.8350935169"><ele></ele><time>2014-7-3T22:42:45Z</time></trkpt>
<trkpt lat="46.4736329578" lon="6.8351624999"><ele></ele><time>2014-7-3T22:42:48Z</time></trkpt>
<trkpt lat="46.4732508268" lon="6.8352506775"><ele></ele><time>2014-7-3T22:42:51Z</time></trkpt>
<trkpt lat="46.4729959331" lon="6.8349478394"><ele></ele><time>2014-7-3T22:42:54Z</time></trkpt>
<trkpt lat="46.4729233459" lon="6.8347069435"><ele></ele><time>2014-7-3T22:42:57Z</time></trkpt>
<trkpt lat="46.4728951827" lon="6.8341476191"><ele></ele><time>2014-7-3T22:43:0Z</time></trkpt>
<trkpt lat="46.4727639221" lon="6.8337052222"><ele></ele><time>2014-7-3T22:43:3Z</time></trkpt>
<trkpt lat="46.4727536123" lon="6.8334350735"><ele></ele><time>2014-7-3T22:43:6Z</time></trkpt>
<trkpt lat="46.4726531133" lon="6.8330935948"><ele></ele><time>2014-7-3T22:43:9Z</time></trkpt>
<trkpt lat="46.4723670390" lon="6.8329529464"><ele></ele><time>2014-7-3T22:43:12Z</time></trkpt>
<trkpt lat="46.4722863212" lon="6.8329576403"><ele></ele><time>2014-7-3T22:43:15Z</time></trkpt>
<trkpt lat="46.4722233731" lon="6.8329290580"><ele></ele><time>2014-7-3T22:43:18Z</time></trkpt>
<trkpt lat="46.4721301664" lon="6.8333094288"><ele></ele><time>2014-7-3T22:43:21Z</time></trkpt>
<trkpt lat="46.4721128996" lon="6.8333794177"><ele></ele><time>2014-7-3T22:43:24Z</time></trkpt>
<trkpt lat="46.4720574953" lon="6.8335577846"><ele></ele><time>2014-7-3T22:43:27Z</time></trkpt>
<trkpt lat="46.4719210379" lon="6.8335399311"><ele></ele><time>2014-7-3T22:43:30Z</time></trkpt>
<trkpt lat="46.4719038550" lon="6.8324210308"><ele></ele><time>2014-7-3T22:43:33Z</time></trkpt>
<trkpt lat="46.4718652144" lon="6.8312798347"><ele></ele><time>2014-7-3T22:43:36Z</time></trkpt>
<trkpt lat="46.4714508969" lon="6.8300359603"><ele></ele><time>2014-7-3T22:43:39Z</time></trkpt>
<trkpt lat="46.4708683547" lon="6.8293574452"><ele></ele><time>2014-7-3T22:43:42Z</time></trkpt>
<trkpt lat="46.4707645029" lon="6.8290208280"><ele></ele><time>2014-7-3T22:43:45Z</time></trkpt>
<trkpt lat="46.4704863075" lon="6.8285987992"><ele></ele><time>2014-7-3T22:43:48Z</time></trkpt>
<trkpt lat="46.4703376964" lon="6.8285669480"><ele></ele><time>2014-7-3T22:43:51Z</time></trkpt>
<trkpt lat="46.4702615887" lon="6.8287588935"><ele></ele><time>2014-7-3T22:43:54Z</time></trkpt>
<trkpt lat="46.4701268077" lon="6.8299278338"><ele></ele><time>2014-7-3T22:43:57Z</time></trkpt>
<trkpt lat="46.4700238779" lon="6.8316517398"><ele></ele><time>2014-7-3T22:44:0Z</time></trkpt>
<trkpt lat="46.4695842471" lon="6.8339747004"><ele></ele><time>2014-7-3T22:44:3Z</time></trkpt>
<trkpt lat="46.4691939857" lon="6.8350910023"><ele></ele><time>2014-7-3T22:44:6Z</time></trkpt>
<trkpt lat="46.4687179774" lon="6.8356495723"><ele></ele><time>2014-7-3T22:44:9Z</time></trkpt>
<trkpt lat="46.4685502555" lon="6.8357229978"><ele></ele><time>2014-7-3T22:44:12Z</time></trkpt>
<trkpt lat="46.4683125447" lon="6.8359700125"><ele></ele><time>2014-7-3T22:44:15Z</time></trkpt>
<trkpt lat="46.4682346769" lon="6.8361519836"><ele></ele><time>2014-7-3T22:44:18Z</time></trkpt>
<trkpt lat="46.4679117221" lon="6.8361668196"><ele></ele><time>2014-7-3T22:44:21Z</time></trkpt>
<trkpt lat="46.4678722434" lon="6.8356503267"><ele></ele><time>2014-7-3T22:44:24Z</time></trkpt>
<trkpt lat="46.4680311643" lon="6.8355064094"><ele></ele><time>2014-7-3T22:44:27Z</time></trkpt>
<trkpt lat="46.4684108645" lon="6.8349904194"><ele></ele><time>2014-7-3T22:44:30Z</time></trkpt>
<trkpt lat="46.4686197415" lon="6.8342709169"><ele></ele><time>2014-7-3T22:44:33Z</time></trkpt>
<trkpt lat="46.4686732180" lon="6.8340348825"><ele></ele><time>2014-7-3T22:44:36Z</time></trkpt>
<trkpt lat="46.4688626491" lon="6.8330790102"><ele></ele><time>2014-7-3T22:44:39Z</time></trkpt>
<trkpt lat="46.4688730426" lon="6.8329717219"><ele></ele><time>2014-7-3T22:44:42Z</time></trkpt>
<trkpt lat="46.4688292891" lon="6.8329796009"><ele></ele><time>2014-7-3T22:44:45Z</time></trkpt>
<trkpt lat="46.4688034728" lon="6.8331443891"><ele></ele><time>2014-7-3T22:44:48Z</time></trkpt>
<trkpt lat="46.4687013812" lon="6.8336025439"><ele></ele><time>2014-7-3T22:44:51Z</time></trkpt>
<trkpt lat="46.4686721284" lon="6.8337798212"><ele></ele><time>2014-7-3T22:44:54Z</time></trkpt>
<trkpt lat="46.4683959447" lon="6.8349237833"><ele></ele><time>2014-7-3T22:44:57Z</time></trkpt>
<trkpt lat="46.4683319069" lon="6.8351095263"><ele></ele><time>2014-7-3T22:45:0Z</time></trkpt>
<trkpt lat="46.4682723954" lon="6.8352285493"><ele></ele><time>2014-7-3T22:45:3Z</time></trkpt>
<trkpt lat="46.4680917654" lon="6.8354416173"><ele></ele><time>2014-7-3T22:45:6Z</time></trkpt>
<trkpt lat="46.4677664638" lon="6.8356382567"><ele></ele><time>2014-7-3T22:45:9Z</time></trkpt>
<trkpt lat="46.4672386553" lon="6.8357708585"><ele></ele><time>2014-7-3T22:45:12Z</time></trkpt>
<trkpt lat="46.4671063051" lon="6.8357282784"><ele></ele><time>2014-7-3T22:45:15Z</time></trkpt>
<trkpt lat="46.4668780658" lon="6.8360349722"><ele></ele><time>2014-7-3T22:45:18Z</time></trkpt>
<trkpt lat="46.4670821652" lon="6.8360209744"><ele></ele><time>2014-7-3T22:45:21Z</time></trkpt>
<trkpt lat="46.4671164472" lon="6.8359728623"><ele></ele><time>2014-7-3T22:45:24Z</time></trkpt>
<trkpt lat="46.4676481113" lon="6.8351670261"><ele></ele><time>2014-7-3T22:45:27Z</time></trkpt>
<trkpt lat="46.4683423005" lon="6.8339492194"><ele></ele><time>2014-7-3T22:45:30Z</time></trkpt>
<trkpt lat="46.4684282150" lon="6.8326977175"><ele></ele><time>2014-7-3T22:45:33Z</time></trkpt>
<trkpt lat="46.4684532769" lon="6.8308126274"><ele></ele><time>2014-7-3T22:45:36Z</time></trkpt>
<trkpt lat="46.4684695378" lon="6.8301448412"><ele></ele><time>2014-7-3T22:45:39Z</time></trkpt>
<trkpt lat="46.4685253613" lon="6.8297253270"><ele></ele><time>2014-7-3T22:45:42Z</time></trkpt>
<trkpt lat="46.4685713779" lon="6.8293582834"><ele></ele><time>2014-7-3T22:45:45Z</time></trkpt>
<trkpt lat="46.4684947673" lon="6.8295571022"><ele></ele><time>2014-7-3T22:45:48Z</time></trkpt>
<trkpt lat="46.4684117027" lon="6.8299428374"><ele></ele><time>2014-7-3T22:45:51Z</time></trkpt>
<trkpt lat="46.4683801029" lon="6.8299300130"><ele></ele><time>2014-7-3T22:45:54Z</time></trkpt>
<trkpt lat="46.4683727268" lon="6.8298995029"><ele></ele><time>2014-7-3T22:45:57Z</time></trkpt>
<trkpt lat="46.4683475811" lon="6.8298988324"><ele></ele><time>2014-7-3T22:46:0Z</time></trkpt>
<trkpt lat="46.4683482517" lon="6.8299042806"><ele></ele><time>2014-7-3T22:46:3Z</time></trkpt>
<trkpt lat="46.4683713019" lon="6.8298995029"><ele></ele><time>2014-7-3T22:46:6Z</time></trkpt>
<trkpt lat="46.4683702961" lon="6.8299065437"><ele></ele><time>2014-7-3T22:46:9Z</time></trkpt>
<trkpt lat="46.4683329966" lon="6.8299016822"><ele></ele><time>2014-7-3T22:46:12Z</time></trkpt>
<trkpt lat="46.4683690388" lon="6.8299086392"><ele></ele><time>2014-7-3T22:46:15Z</time></trkpt>
<trkpt lat="46.4683670271" lon="6.8299091421"><ele></ele><time>2014-7-3T22:46:18Z</time></trkpt>
<trkpt lat="46.4683596510" lon="6.8299107347"><ele></ele><time>2014-7-3T22:46:21Z</time></trkpt>
<trkpt lat="46.4683751576" lon="6.8299207930"><ele></ele><time>2014-7-3T22:46:24Z</time></trkpt>
<trkpt lat="46.4683894068" lon="6.8299052864"><ele></ele><time>2014-7-3T22:46:27Z</time></trkpt>
<trkpt lat="46.4683846291" lon="6.8299209606"><ele></ele><time>2014-7-3T22:46:30Z</time></trkpt>
</trkseg></trk></gpx>